Albany, Texas
Current Conditions -  °F | °C
As of 8:55 AM on Wednesday 26 Nov 2014 (Local Time) from KBKD Reporting Station
Clear Clear  
Wind Chill: 11°   Ceiling: Unl
Heat Index: 11°   Visibility: 10mi
Dew Point: -5°   Wind: 12mph
Humidity: 34%   Direction: 330°NNW
Pressure: 30.17"   Gusts: 18mph
Location:  32.72°N, 99.3°W
Report Text: KBKD 261455Z AUTO 33010G16KT 10SM CLR 11/M05 A3017 RMK AO2 T01081046
Loading
Personal Weather Stations






























Interactive Weather Map New forecast layout! Learn more

10-Day Weather Forecast

Advertisements
Track Severe Weather on mobile